sensor_id;sensor_type;location;lat;lon;timestamp;P1;durP1;ratioP1;P2;durP2;ratioP2
78860;SDS011;68211;45.774;15.892;2023-06-14T00:02:04;13.50;;;7.53;;
78860;SDS011;68211;45.774;15.892;2023-06-14T00:04:31;12.18;;;7.63;;
78860;SDS011;68211;45.774;15.892;2023-06-14T00:06:57;9.60;;;7.55;;
78860;SDS011;68211;45.774;15.892;2023-06-14T00:09:26;16.20;;;7.75;;
78860;SDS011;68211;45.774;15.892;2023-06-14T00:11:53;13.75;;;7.07;;
78860;SDS011;68211;45.774;15.892;2023-06-14T00:14:21;13.75;;;7.65;;
78860;SDS011;68211;45.774;15.892;2023-06-14T00:16:47;14.23;;;7.45;;
78860;SDS011;68211;45.774;15.892;2023-06-14T00:19:14;15.18;;;7.32;;
78860;SDS011;68211;45.774;15.892;2023-06-14T00:21:40;12.68;;;7.88;;
78860;SDS011;68211;45.774;15.892;2023-06-14T00:24:10;14.20;;;8.05;;
78860;SDS011;68211;45.774;15.892;2023-06-14T00:26:37;15.43;;;8.63;;
78860;SDS011;68211;45.774;15.892;2023-06-14T00:29:03;11.73;;;7.55;;
78860;SDS011;68211;45.774;15.892;2023-06-14T00:31:31;19.75;;;8.68;;
78860;SDS011;68211;45.774;15.892;2023-06-14T00:33:58;19.20;;;8.93;;
78860;SDS011;68211;45.774;15.892;2023-06-14T00:36:24;21.67;;;9.65;;
78860;SDS011;68211;45.774;15.892;2023-06-14T00:38:51;20.00;;;8.63;;
78860;SDS011;68211;45.774;15.892;2023-06-14T00:41:17;15.95;;;9.00;;
78860;SDS011;68211;45.774;15.892;2023-06-14T00:43:44;18.48;;;8.63;;
78860;SDS011;68211;45.774;15.892;2023-06-14T00:46:10;19.17;;;9.80;;
78860;SDS011;68211;45.774;15.892;2023-06-14T00:48:39;17.95;;;8.02;;
78860;SDS011;68211;45.774;15.892;2023-06-14T00:51:05;14.73;;;8.23;;
78860;SDS011;68211;45.774;15.892;2023-06-14T00:53:32;19.30;;;8.32;;
78860;SDS011;68211;45.774;15.892;2023-06-14T00:55:59;12.32;;;7.45;;
78860;SDS011;68211;45.774;15.892;2023-06-14T00:58:26;16.30;;;8.07;;
78860;SDS011;68211;45.774;15.892;2023-06-14T01:00:53;9.23;;;6.80;;
78860;SDS011;68211;45.774;15.892;2023-06-14T01:03:20;12.85;;;8.00;;
78860;SDS011;68211;45.774;15.892;2023-06-14T01:05:48;12.25;;;7.03;;
78860;SDS011;68211;45.774;15.892;2023-06-14T01:08:17;15.82;;;7.15;;
78860;SDS011;68211;45.774;15.892;2023-06-14T01:10:47;15.15;;;7.20;;
78860;SDS011;68211;45.774;15.892;2023-06-14T01:13:19;20.00;;;7.80;;
78860;SDS011;68211;45.774;15.892;2023-06-14T01:15:46;14.90;;;8.00;;
78860;SDS011;68211;45.774;15.892;2023-06-14T01:18:13;14.02;;;7.13;;
78860;SDS011;68211;45.774;15.892;2023-06-14T01:20:40;13.02;;;7.35;;
78860;SDS011;68211;45.774;15.892;2023-06-14T01:23:08;10.95;;;7.20;;
78860;SDS011;68211;45.774;15.892;2023-06-14T01:25:35;12.65;;;7.53;;
78860;SDS011;68211;45.774;15.892;2023-06-14T01:28:02;12.80;;;7.65;;
78860;SDS011;68211;45.774;15.892;2023-06-14T01:30:29;16.13;;;7.63;;
78860;SDS011;68211;45.774;15.892;2023-06-14T01:32:57;23.75;;;7.60;;
78860;SDS011;68211;45.774;15.892;2023-06-14T01:35:24;12.32;;;7.43;;
78860;SDS011;68211;45.774;15.892;2023-06-14T01:37:51;12.88;;;7.05;;
78860;SDS011;68211;45.774;15.892;2023-06-14T01:40:19;19.83;;;7.45;;
78860;SDS011;68211;45.774;15.892;2023-06-14T01:42:47;13.25;;;7.80;;
78860;SDS011;68211;45.774;15.892;2023-06-14T01:45:14;10.95;;;7.18;;
78860;SDS011;68211;45.774;15.892;2023-06-14T01:47:41;13.45;;;7.25;;
78860;SDS011;68211;45.774;15.892;2023-06-14T01:50:08;11.77;;;7.65;;
78860;SDS011;68211;45.774;15.892;2023-06-14T01:52:36;13.40;;;7.97;;
78860;SDS011;68211;45.774;15.892;2023-06-14T01:55:02;16.67;;;7.90;;
78860;SDS011;68211;45.774;15.892;2023-06-14T01:57:31;17.85;;;7.53;;
78860;SDS011;68211;45.774;15.892;2023-06-14T01:59:57;13.65;;;7.15;;
78860;SDS011;68211;45.774;15.892;2023-06-14T02:02:24;16.58;;;7.90;;
78860;SDS011;68211;45.774;15.892;2023-06-14T02:04:50;22.27;;;7.72;;
78860;SDS011;68211;45.774;15.892;2023-06-14T02:07:17;12.32;;;7.32;;
78860;SDS011;68211;45.774;15.892;2023-06-14T02:09:43;16.33;;;7.75;;
78860;SDS011;68211;45.774;15.892;2023-06-14T02:12:10;14.95;;;7.82;;
78860;SDS011;68211;45.774;15.892;2023-06-14T02:14:37;11.70;;;7.45;;
78860;SDS011;68211;45.774;15.892;2023-06-14T02:17:04;12.25;;;7.75;;
78860;SDS011;68211;45.774;15.892;2023-06-14T02:19:31;16.27;;;8.13;;
78860;SDS011;68211;45.774;15.892;2023-06-14T02:21:57;13.02;;;8.05;;
78860;SDS011;68211;45.774;15.892;2023-06-14T02:24:24;16.27;;;7.85;;
78860;SDS011;68211;45.774;15.892;2023-06-14T02:26:50;12.75;;;7.65;;
78860;SDS011;68211;45.774;15.892;2023-06-14T02:29:17;18.38;;;8.85;;
78860;SDS011;68211;45.774;15.892;2023-06-14T02:31:44;12.93;;;8.52;;
78860;SDS011;68211;45.774;15.892;2023-06-14T02:34:11;19.73;;;8.82;;
78860;SDS011;68211;45.774;15.892;2023-06-14T02:36:37;16.75;;;9.07;;
78860;SDS011;68211;45.774;15.892;2023-06-14T02:39:04;25.35;;;9.00;;
78860;SDS011;68211;45.774;15.892;2023-06-14T02:41:30;16.85;;;8.75;;
78860;SDS011;68211;45.774;15.892;2023-06-14T02:43:57;18.40;;;8.85;;
78860;SDS011;68211;45.774;15.892;2023-06-14T02:46:23;16.15;;;10.05;;
78860;SDS011;68211;45.774;15.892;2023-06-14T02:48:51;19.40;;;9.70;;
78860;SDS011;68211;45.774;15.892;2023-06-14T02:51:18;16.02;;;9.40;;
78860;SDS011;68211;45.774;15.892;2023-06-14T02:53:44;17.67;;;8.95;;
78860;SDS011;68211;45.774;15.892;2023-06-14T02:56:10;14.27;;;8.75;;
78860;SDS011;68211;45.774;15.892;2023-06-14T02:58:37;19.85;;;9.73;;
78860;SDS011;68211;45.774;15.892;2023-06-14T03:01:03;20.13;;;9.13;;
78860;SDS011;68211;45.774;15.892;2023-06-14T03:03:30;16.00;;;9.30;;
78860;SDS011;68211;45.774;15.892;2023-06-14T03:05:58;15.52;;;8.85;;
78860;SDS011;68211;45.774;15.892;2023-06-14T03:08:24;20.42;;;9.77;;
78860;SDS011;68211;45.774;15.892;2023-06-14T03:10:51;16.98;;;9.27;;
78860;SDS011;68211;45.774;15.892;2023-06-14T03:13:17;14.20;;;9.18;;
78860;SDS011;68211;45.774;15.892;2023-06-14T03:15:44;13.68;;;8.82;;
78860;SDS011;68211;45.774;15.892;2023-06-14T03:18:10;19.48;;;8.73;;
78860;SDS011;68211;45.774;15.892;2023-06-14T03:20:37;16.67;;;8.55;;
78860;SDS011;68211;45.774;15.892;2023-06-14T03:23:05;13.55;;;8.57;;
78860;SDS011;68211;45.774;15.892;2023-06-14T03:25:31;14.75;;;9.45;;
78860;SDS011;68211;45.774;15.892;2023-06-14T03:27:58;18.38;;;9.57;;
78860;SDS011;68211;45.774;15.892;2023-06-14T03:30:24;16.52;;;9.02;;
78860;SDS011;68211;45.774;15.892;2023-06-14T03:32:50;20.73;;;8.55;;
78860;SDS011;68211;45.774;15.892;2023-06-14T03:35:17;13.43;;;7.95;;
78860;SDS011;68211;45.774;15.892;2023-06-14T03:37:44;21.95;;;9.18;;
78860;SDS011;68211;45.774;15.892;2023-06-14T03:40:12;18.02;;;9.98;;
78860;SDS011;68211;45.774;15.892;2023-06-14T03:42:39;17.58;;;9.25;;
78860;SDS011;68211;45.774;15.892;2023-06-14T03:45:06;17.75;;;9.20;;
78860;SDS011;68211;45.774;15.892;2023-06-14T03:47:32;18.70;;;9.25;;
78860;SDS011;68211;45.774;15.892;2023-06-14T03:49:59;27.77;;;9.93;;
78860;SDS011;68211;45.774;15.892;2023-06-14T03:52:25;25.65;;;10.25;;
78860;SDS011;68211;45.774;15.892;2023-06-14T03:54:52;22.85;;;11.20;;
78860;SDS011;68211;45.774;15.892;2023-06-14T03:59:49;16.23;;;9.77;;
78860;SDS011;68211;45.774;15.892;2023-06-14T04:02:16;21.20;;;10.23;;
78860;SDS011;68211;45.774;15.892;2023-06-14T04:04:42;14.88;;;9.13;;
78860;SDS011;68211;45.774;15.892;2023-06-14T04:07:08;23.08;;;9.57;;
78860;SDS011;68211;45.774;15.892;2023-06-14T04:09:35;17.35;;;8.82;;
78860;SDS011;68211;45.774;15.892;2023-06-14T04:12:01;17.95;;;9.50;;
78860;SDS011;68211;45.774;15.892;2023-06-14T04:14:28;22.88;;;9.07;;
78860;SDS011;68211;45.774;15.892;2023-06-14T04:16:56;18.10;;;9.00;;
78860;SDS011;68211;45.774;15.892;2023-06-14T04:19:22;19.55;;;8.68;;
78860;SDS011;68211;45.774;15.892;2023-06-14T04:21:49;16.17;;;8.80;;
78860;SDS011;68211;45.774;15.892;2023-06-14T04:24:15;14.02;;;9.15;;
78860;SDS011;68211;45.774;15.892;2023-06-14T04:26:42;21.77;;;8.70;;
78860;SDS011;68211;45.774;15.892;2023-06-14T04:29:08;16.67;;;8.82;;
78860;SDS011;68211;45.774;15.892;2023-06-14T04:31:35;26.60;;;8.93;;
78860;SDS011;68211;45.774;15.892;2023-06-14T04:34:03;27.58;;;9.45;;
78860;SDS011;68211;45.774;15.892;2023-06-14T04:36:29;25.10;;;9.13;;
78860;SDS011;68211;45.774;15.892;2023-06-14T04:38:55;31.33;;;9.10;;
78860;SDS011;68211;45.774;15.892;2023-06-14T04:41:22;19.92;;;8.30;;
78860;SDS011;68211;45.774;15.892;2023-06-14T04:43:48;18.33;;;8.68;;
78860;SDS011;68211;45.774;15.892;2023-06-14T04:46:15;19.55;;;9.20;;
78860;SDS011;68211;45.774;15.892;2023-06-14T04:48:41;20.00;;;10.05;;
78860;SDS011;68211;45.774;15.892;2023-06-14T04:51:09;21.20;;;8.77;;
78860;SDS011;68211;45.774;15.892;2023-06-14T04:53:36;18.85;;;8.27;;
78860;SDS011;68211;45.774;15.892;2023-06-14T04:56:02;16.67;;;9.70;;
78860;SDS011;68211;45.774;15.892;2023-06-14T04:58:29;20.33;;;9.02;;
78860;SDS011;68211;45.774;15.892;2023-06-14T05:00:56;15.60;;;9.43;;
78860;SDS011;68211;45.774;15.892;2023-06-14T05:03:22;23.20;;;8.95;;
78860;SDS011;68211;45.774;15.892;2023-06-14T05:05:49;16.00;;;9.38;;
78860;SDS011;68211;45.774;15.892;2023-06-14T05:08:17;15.23;;;9.32;;
78860;SDS011;68211;45.774;15.892;2023-06-14T05:10:43;22.35;;;9.77;;
78860;SDS011;68211;45.774;15.892;2023-06-14T05:13:10;24.80;;;9.77;;
78860;SDS011;68211;45.774;15.892;2023-06-14T05:15:36;15.52;;;9.60;;
78860;SDS011;68211;45.774;15.892;2023-06-14T05:18:03;14.65;;;9.23;;
78860;SDS011;68211;45.774;15.892;2023-06-14T05:20:29;19.92;;;9.10;;
78860;SDS011;68211;45.774;15.892;2023-06-14T05:22:55;19.15;;;9.52;;
78860;SDS011;68211;45.774;15.892;2023-06-14T05:25:23;18.38;;;9.48;;
78860;SDS011;68211;45.774;15.892;2023-06-14T05:27:50;17.33;;;8.45;;
78860;SDS011;68211;45.774;15.892;2023-06-14T05:30:16;18.58;;;8.70;;
78860;SDS011;68211;45.774;15.892;2023-06-14T05:32:43;19.33;;;9.70;;
78860;SDS011;68211;45.774;15.892;2023-06-14T05:35:09;23.00;;;9.45;;
78860;SDS011;68211;45.774;15.892;2023-06-14T05:37:36;21.40;;;9.10;;
78860;SDS011;68211;45.774;15.892;2023-06-14T05:40:03;22.30;;;10.20;;
78860;SDS011;68211;45.774;15.892;2023-06-14T05:42:31;19.73;;;8.70;;
78860;SDS011;68211;45.774;15.892;2023-06-14T05:44:57;22.08;;;9.95;;
78860;SDS011;68211;45.774;15.892;2023-06-14T05:47:24;15.57;;;9.07;;
78860;SDS011;68211;45.774;15.892;2023-06-14T05:49:50;23.13;;;9.45;;
78860;SDS011;68211;45.774;15.892;2023-06-14T05:52:17;22.63;;;9.73;;
78860;SDS011;68211;45.774;15.892;2023-06-14T05:54:43;15.13;;;9.25;;
78860;SDS011;68211;45.774;15.892;2023-06-14T05:57:10;18.02;;;9.32;;
78860;SDS011;68211;45.774;15.892;2023-06-14T05:59:38;20.35;;;8.70;;
78860;SDS011;68211;45.774;15.892;2023-06-14T06:02:04;18.40;;;9.50;;
78860;SDS011;68211;45.774;15.892;2023-06-14T06:04:31;24.33;;;10.02;;
78860;SDS011;68211;45.774;15.892;2023-06-14T06:06:58;18.33;;;9.63;;
78860;SDS011;68211;45.774;15.892;2023-06-14T06:09:24;19.95;;;9.25;;
78860;SDS011;68211;45.774;15.892;2023-06-14T06:11:51;16.63;;;9.38;;
78860;SDS011;68211;45.774;15.892;2023-06-14T06:14:19;15.35;;;8.85;;
78860;SDS011;68211;45.774;15.892;2023-06-14T06:16:47;22.00;;;8.50;;
78860;SDS011;68211;45.774;15.892;2023-06-14T06:19:14;17.90;;;8.63;;
78860;SDS011;68211;45.774;15.892;2023-06-14T06:21:40;20.75;;;8.98;;
78860;SDS011;68211;45.774;15.892;2023-06-14T06:24:07;19.80;;;7.90;;
78860;SDS011;68211;45.774;15.892;2023-06-14T06:26:33;15.70;;;9.18;;
78860;SDS011;68211;45.774;15.892;2023-06-14T06:29:00;20.83;;;9.57;;
78860;SDS011;68211;45.774;15.892;2023-06-14T06:31:27;18.98;;;8.43;;
78860;SDS011;68211;45.774;15.892;2023-06-14T06:34:01;14.35;;;8.90;;
78860;SDS011;68211;45.774;15.892;2023-06-14T06:36:30;20.27;;;8.80;;
78860;SDS011;68211;45.774;15.892;2023-06-14T06:39:03;27.50;;;12.55;;
78860;SDS011;68211;45.774;15.892;2023-06-14T06:41:29;35.13;;;15.77;;
78860;SDS011;68211;45.774;15.892;2023-06-14T06:43:56;35.95;;;18.40;;
78860;SDS011;68211;45.774;15.892;2023-06-14T06:46:23;32.33;;;16.63;;
78860;SDS011;68211;45.774;15.892;2023-06-14T06:48:50;34.50;;;13.00;;
78860;SDS011;68211;45.774;15.892;2023-06-14T06:51:18;21.35;;;9.55;;
78860;SDS011;68211;45.774;15.892;2023-06-14T06:53:51;19.63;;;10.35;;
78860;SDS011;68211;45.774;15.892;2023-06-14T06:56:18;21.35;;;9.98;;
78860;SDS011;68211;45.774;15.892;2023-06-14T06:58:45;15.45;;;8.93;;
78860;SDS011;68211;45.774;15.892;2023-06-14T07:01:11;19.25;;;6.50;;
78860;SDS011;68211;45.774;15.892;2023-06-14T07:03:38;8.70;;;5.70;;
78860;SDS011;68211;45.774;15.892;2023-06-14T07:06:05;10.05;;;5.45;;
78860;SDS011;68211;45.774;15.892;2023-06-14T07:08:33;13.50;;;5.63;;
78860;SDS011;68211;45.774;15.892;2023-06-14T07:11:00;13.57;;;5.88;;
78860;SDS011;68211;45.774;15.892;2023-06-14T07:13:27;13.98;;;5.85;;
78860;SDS011;68211;45.774;15.892;2023-06-14T07:15:59;12.02;;;5.95;;
78860;SDS011;68211;45.774;15.892;2023-06-14T07:18:25;16.05;;;5.90;;
78860;SDS011;68211;45.774;15.892;2023-06-14T07:20:52;20.27;;;6.85;;
78860;SDS011;68211;45.774;15.892;2023-06-14T07:23:19;13.85;;;7.10;;
78860;SDS011;68211;45.774;15.892;2023-06-14T07:25:48;24.48;;;10.93;;
78860;SDS011;68211;45.774;15.892;2023-06-14T07:28:14;25.80;;;9.48;;
78860;SDS011;68211;45.774;15.892;2023-06-14T07:30:41;15.93;;;7.45;;
78860;SDS011;68211;45.774;15.892;2023-06-14T07:33:08;14.18;;;6.78;;
78860;SDS011;68211;45.774;15.892;2023-06-14T07:35:35;12.25;;;6.65;;
78860;SDS011;68211;45.774;15.892;2023-06-14T07:38:07;14.05;;;6.13;;
78860;SDS011;68211;45.774;15.892;2023-06-14T07:40:34;16.40;;;6.88;;
78860;SDS011;68211;45.774;15.892;2023-06-14T07:43:02;10.55;;;6.18;;
78860;SDS011;68211;45.774;15.892;2023-06-14T07:45:29;12.52;;;5.95;;
78860;SDS011;68211;45.774;15.892;2023-06-14T07:47:55;17.33;;;6.88;;
78860;SDS011;68211;45.774;15.892;2023-06-14T07:50:22;12.20;;;5.72;;
78860;SDS011;68211;45.774;15.892;2023-06-14T07:52:49;14.02;;;5.45;;
78860;SDS011;68211;45.774;15.892;2023-06-14T07:55:15;13.45;;;5.38;;
78860;SDS011;68211;45.774;15.892;2023-06-14T07:57:42;22.00;;;7.97;;
78860;SDS011;68211;45.774;15.892;2023-06-14T08:00:11;19.40;;;8.45;;
78860;SDS011;68211;45.774;15.892;2023-06-14T08:02:37;20.70;;;9.02;;
78860;SDS011;68211;45.774;15.892;2023-06-14T08:05:04;21.50;;;8.68;;
78860;SDS011;68211;45.774;15.892;2023-06-14T08:07:31;20.10;;;5.70;;
78860;SDS011;68211;45.774;15.892;2023-06-14T08:09:57;8.07;;;5.57;;
78860;SDS011;68211;45.774;15.892;2023-06-14T08:12:24;14.95;;;5.07;;
78860;SDS011;68211;45.774;15.892;2023-06-14T08:14:50;8.43;;;5.25;;
78860;SDS011;68211;45.774;15.892;2023-06-14T08:17:38;14.73;;;5.53;;
78860;SDS011;68211;45.774;15.892;2023-06-14T08:20:05;8.00;;;5.57;;
78860;SDS011;68211;45.774;15.892;2023-06-14T08:22:32;12.23;;;5.47;;
78860;SDS011;68211;45.774;15.892;2023-06-14T08:24:58;10.32;;;4.80;;
78860;SDS011;68211;45.774;15.892;2023-06-14T08:27:25;8.48;;;5.00;;
78860;SDS011;68211;45.774;15.892;2023-06-14T08:29:55;7.95;;;5.25;;
78860;SDS011;68211;45.774;15.892;2023-06-14T08:32:21;11.32;;;5.47;;
78860;SDS011;68211;45.774;15.892;2023-06-14T08:34:49;14.13;;;5.32;;
78860;SDS011;68211;45.774;15.892;2023-06-14T08:37:30;9.75;;;5.30;;
78860;SDS011;68211;45.774;15.892;2023-06-14T08:39:56;8.80;;;5.28;;
78860;SDS011;68211;45.774;15.892;2023-06-14T08:42:23;13.25;;;5.60;;
78860;SDS011;68211;45.774;15.892;2023-06-14T08:44:57;14.80;;;5.78;;
78860;SDS011;68211;45.774;15.892;2023-06-14T08:47:24;8.27;;;5.97;;
78860;SDS011;68211;45.774;15.892;2023-06-14T08:49:52;11.00;;;5.57;;
78860;SDS011;68211;45.774;15.892;2023-06-14T08:52:19;14.85;;;6.07;;
78860;SDS011;68211;45.774;15.892;2023-06-14T08:54:47;16.98;;;5.93;;
78860;SDS011;68211;45.774;15.892;2023-06-14T08:57:13;14.95;;;5.85;;
78860;SDS011;68211;45.774;15.892;2023-06-14T08:59:40;8.73;;;5.50;;
78860;SDS011;68211;45.774;15.892;2023-06-14T09:02:12;8.73;;;5.32;;
78860;SDS011;68211;45.774;15.892;2023-06-14T09:04:39;8.82;;;5.63;;
78860;SDS011;68211;45.774;15.892;2023-06-14T09:07:06;14.48;;;6.00;;
78860;SDS011;68211;45.774;15.892;2023-06-14T09:09:33;7.97;;;5.75;;
78860;SDS011;68211;45.774;15.892;2023-06-14T09:12:06;18.40;;;6.10;;
78860;SDS011;68211;45.774;15.892;2023-06-14T09:14:33;11.50;;;5.87;;
78860;SDS011;68211;45.774;15.892;2023-06-14T09:16:59;15.95;;;6.03;;
78860;SDS011;68211;45.774;15.892;2023-06-14T09:19:26;9.45;;;5.28;;
78860;SDS011;68211;45.774;15.892;2023-06-14T09:21:54;9.52;;;5.53;;
78860;SDS011;68211;45.774;15.892;2023-06-14T09:24:23;8.65;;;5.82;;
78860;SDS011;68211;45.774;15.892;2023-06-14T09:26:50;10.40;;;5.68;;
78860;SDS011;68211;45.774;15.892;2023-06-14T09:29:17;15.23;;;5.63;;
78860;SDS011;68211;45.774;15.892;2023-06-14T09:31:45;12.48;;;5.63;;
78860;SDS011;68211;45.774;15.892;2023-06-14T09:34:12;8.27;;;5.10;;
78860;SDS011;68211;45.774;15.892;2023-06-14T09:36:39;9.02;;;5.07;;
78860;SDS011;68211;45.774;15.892;2023-06-14T09:39:05;11.90;;;5.50;;
78860;SDS011;68211;45.774;15.892;2023-06-14T09:41:34;7.90;;;4.78;;
78860;SDS011;68211;45.774;15.892;2023-06-14T09:44:01;5.73;;;5.10;;
78860;SDS011;68211;45.774;15.892;2023-06-14T09:46:30;7.45;;;4.75;;
78860;SDS011;68211;45.774;15.892;2023-06-14T09:48:57;10.93;;;5.45;;
78860;SDS011;68211;45.774;15.892;2023-06-14T09:51:24;6.05;;;5.25;;
78860;SDS011;68211;45.774;15.892;2023-06-14T09:53:50;17.08;;;5.93;;
78860;SDS011;68211;45.774;15.892;2023-06-14T09:56:22;8.70;;;5.63;;
78860;SDS011;68211;45.774;15.892;2023-06-14T09:58:51;11.20;;;5.40;;
78860;SDS011;68211;45.774;15.892;2023-06-14T10:01:33;6.53;;;5.32;;
78860;SDS011;68211;45.774;15.892;2023-06-14T10:04:01;12.88;;;5.50;;
78860;SDS011;68211;45.774;15.892;2023-06-14T10:06:37;8.38;;;5.55;;
78860;SDS011;68211;45.774;15.892;2023-06-14T10:09:05;11.63;;;5.78;;
78860;SDS011;68211;45.774;15.892;2023-06-14T10:11:33;13.20;;;6.00;;
78860;SDS011;68211;45.774;15.892;2023-06-14T10:14:03;11.13;;;5.57;;
78860;SDS011;68211;45.774;15.892;2023-06-14T10:16:30;13.60;;;5.30;;
78860;SDS011;68211;45.774;15.892;2023-06-14T10:19:00;8.45;;;5.38;;
78860;SDS011;68211;45.774;15.892;2023-06-14T10:21:30;6.25;;;5.28;;
78860;SDS011;68211;45.774;15.892;2023-06-14T10:24:03;9.40;;;4.88;;
78860;SDS011;68211;45.774;15.892;2023-06-14T10:26:38;8.93;;;4.40;;
78860;SDS011;68211;45.774;15.892;2023-06-14T10:29:21;9.00;;;4.95;;
78860;SDS011;68211;45.774;15.892;2023-06-14T10:31:56;9.13;;;4.75;;
78860;SDS011;68211;45.774;15.892;2023-06-14T10:34:24;8.27;;;4.93;;
78860;SDS011;68211;45.774;15.892;2023-06-14T10:37:01;9.85;;;4.82;;
78860;SDS011;68211;45.774;15.892;2023-06-14T10:39:28;9.63;;;4.55;;
78860;SDS011;68211;45.774;15.892;2023-06-14T10:41:58;7.65;;;4.97;;
78860;SDS011;68211;45.774;15.892;2023-06-14T10:44:39;7.03;;;4.40;;
78860;SDS011;68211;45.774;15.892;2023-06-14T10:47:21;7.20;;;4.57;;
78860;SDS011;68211;45.774;15.892;2023-06-14T10:49:50;8.48;;;4.60;;
78860;SDS011;68211;45.774;15.892;2023-06-14T10:52:20;9.13;;;4.20;;
78860;SDS011;68211;45.774;15.892;2023-06-14T10:54:58;8.45;;;4.93;;
78860;SDS011;68211;45.774;15.892;2023-06-14T10:57:26;10.57;;;5.10;;
78860;SDS011;68211;45.774;15.892;2023-06-14T10:59:54;7.45;;;4.90;;
78860;SDS011;68211;45.774;15.892;2023-06-14T11:05:05;5.45;;;4.32;;
78860;SDS011;68211;45.774;15.892;2023-06-14T11:07:40;6.95;;;5.00;;
78860;SDS011;68211;45.774;15.892;2023-06-14T11:10:15;8.82;;;4.82;;
78860;SDS011;68211;45.774;15.892;2023-06-14T11:12:47;10.52;;;4.45;;
78860;SDS011;68211;45.774;15.892;2023-06-14T11:15:16;11.73;;;4.50;;
78860;SDS011;68211;45.774;15.892;2023-06-14T11:17:51;6.05;;;4.40;;
78860;SDS011;68211;45.774;15.892;2023-06-14T11:20:24;12.10;;;4.40;;
78860;SDS011;68211;45.774;15.892;2023-06-14T11:23:01;6.88;;;4.97;;
78860;SDS011;68211;45.774;15.892;2023-06-14T11:25:30;7.65;;;4.65;;
78860;SDS011;68211;45.774;15.892;2023-06-14T11:27:57;8.77;;;4.38;;
78860;SDS011;68211;45.774;15.892;2023-06-14T11:30:25;11.25;;;4.40;;
78860;SDS011;68211;45.774;15.892;2023-06-14T11:32:54;7.50;;;4.28;;
78860;SDS011;68211;45.774;15.892;2023-06-14T11:35:27;7.20;;;4.80;;
78860;SDS011;68211;45.774;15.892;2023-06-14T11:38:03;5.40;;;4.50;;
78860;SDS011;68211;45.774;15.892;2023-06-14T11:40:38;7.70;;;4.70;;
78860;SDS011;68211;45.774;15.892;2023-06-14T11:43:08;4.35;;;3.85;;
78860;SDS011;68211;45.774;15.892;2023-06-14T11:45:38;4.70;;;3.80;;
78860;SDS011;68211;45.774;15.892;2023-06-14T11:48:06;6.43;;;4.20;;
78860;SDS011;68211;45.774;15.892;2023-06-14T11:50:33;12.50;;;4.63;;
78860;SDS011;68211;45.774;15.892;2023-06-14T11:53:05;6.35;;;4.32;;
78860;SDS011;68211;45.774;15.892;2023-06-14T12:01:24;10.05;;;4.15;;
78860;SDS011;68211;45.774;15.892;2023-06-14T12:03:55;24.27;;;5.50;;
78860;SDS011;68211;45.774;15.892;2023-06-14T12:06:26;7.70;;;4.30;;
78860;SDS011;68211;45.774;15.892;2023-06-14T12:08:55;5.70;;;4.53;;
78860;SDS011;68211;45.774;15.892;2023-06-14T12:11:36;8.90;;;4.70;;
78860;SDS011;68211;45.774;15.892;2023-06-14T12:14:07;7.57;;;4.60;;
78860;SDS011;68211;45.774;15.892;2023-06-14T12:16:42;17.10;;;4.40;;
78860;SDS011;68211;45.774;15.892;2023-06-14T12:19:13;7.72;;;3.50;;
78860;SDS011;68211;45.774;15.892;2023-06-14T12:21:40;16.13;;;4.30;;
78860;SDS011;68211;45.774;15.892;2023-06-14T12:24:11;9.88;;;4.90;;
78860;SDS011;68211;45.774;15.892;2023-06-14T12:26:40;6.13;;;4.28;;
78860;SDS011;68211;45.774;15.892;2023-06-14T12:29:08;9.95;;;4.40;;
78860;SDS011;68211;45.774;15.892;2023-06-14T12:31:41;13.90;;;4.75;;
78860;SDS011;68211;45.774;15.892;2023-06-14T12:34:10;6.97;;;4.07;;
78860;SDS011;68211;45.774;15.892;2023-06-14T12:36:38;5.70;;;4.78;;
78860;SDS011;68211;45.774;15.892;2023-06-14T12:39:04;9.77;;;4.38;;
78860;SDS011;68211;45.774;15.892;2023-06-14T12:41:32;7.00;;;4.55;;
78860;SDS011;68211;45.774;15.892;2023-06-14T12:44:01;6.15;;;4.57;;
78860;SDS011;68211;45.774;15.892;2023-06-14T12:46:28;6.43;;;4.55;;
78860;SDS011;68211;45.774;15.892;2023-06-14T12:48:56;5.80;;;4.40;;
78860;SDS011;68211;45.774;15.892;2023-06-14T12:51:23;14.17;;;3.97;;
78860;SDS011;68211;45.774;15.892;2023-06-14T12:53:50;8.25;;;3.97;;
78860;SDS011;68211;45.774;15.892;2023-06-14T12:56:17;6.70;;;4.00;;
78860;SDS011;68211;45.774;15.892;2023-06-14T12:58:44;4.68;;;3.63;;
78860;SDS011;68211;45.774;15.892;2023-06-14T13:01:11;8.38;;;3.83;;
78860;SDS011;68211;45.774;15.892;2023-06-14T13:03:37;6.70;;;4.00;;
78860;SDS011;68211;45.774;15.892;2023-06-14T13:06:13;9.13;;;3.80;;
78860;SDS011;68211;45.774;15.892;2023-06-14T13:08:40;5.35;;;3.60;;
78860;SDS011;68211;45.774;15.892;2023-06-14T13:11:07;6.65;;;3.95;;
78860;SDS011;68211;45.774;15.892;2023-06-14T13:13:34;4.60;;;4.20;;
78860;SDS011;68211;45.774;15.892;2023-06-14T13:16:01;11.68;;;4.30;;
78860;SDS011;68211;45.774;15.892;2023-06-14T13:18:28;10.85;;;3.80;;
78860;SDS011;68211;45.774;15.892;2023-06-14T13:20:54;5.68;;;4.18;;
78860;SDS011;68211;45.774;15.892;2023-06-14T13:23:22;10.32;;;4.47;;
78860;SDS011;68211;45.774;15.892;2023-06-14T13:25:49;9.40;;;3.95;;
78860;SDS011;68211;45.774;15.892;2023-06-14T13:28:15;4.38;;;3.67;;
78860;SDS011;68211;45.774;15.892;2023-06-14T13:30:42;6.53;;;3.97;;
78860;SDS011;68211;45.774;15.892;2023-06-14T13:33:08;5.95;;;3.60;;
78860;SDS011;68211;45.774;15.892;2023-06-14T13:35:35;4.40;;;3.67;;
78860;SDS011;68211;45.774;15.892;2023-06-14T13:38:02;7.22;;;3.65;;
78860;SDS011;68211;45.774;15.892;2023-06-14T13:40:30;4.63;;;3.50;;
78860;SDS011;68211;45.774;15.892;2023-06-14T13:42:56;7.43;;;3.75;;
78860;SDS011;68211;45.774;15.892;2023-06-14T13:45:22;5.70;;;3.78;;
78860;SDS011;68211;45.774;15.892;2023-06-14T13:47:49;8.70;;;3.63;;
78860;SDS011;68211;45.774;15.892;2023-06-14T13:50:16;6.03;;;3.83;;
78860;SDS011;68211;45.774;15.892;2023-06-14T13:52:42;4.55;;;3.72;;
78860;SDS011;68211;45.774;15.892;2023-06-14T13:55:09;9.32;;;3.65;;
78860;SDS011;68211;45.774;15.892;2023-06-14T13:57:37;4.25;;;3.63;;
78860;SDS011;68211;45.774;15.892;2023-06-14T14:00:04;13.35;;;3.85;;
78860;SDS011;68211;45.774;15.892;2023-06-14T14:02:30;3.85;;;3.45;;
78860;SDS011;68211;45.774;15.892;2023-06-14T14:04:57;6.88;;;3.40;;
78860;SDS011;68211;45.774;15.892;2023-06-14T14:07:23;8.07;;;3.50;;
78860;SDS011;68211;45.774;15.892;2023-06-14T14:09:50;3.78;;;3.13;;
78860;SDS011;68211;45.774;15.892;2023-06-14T14:12:17;9.73;;;3.10;;
78860;SDS011;68211;45.774;15.892;2023-06-14T14:14:45;6.32;;;3.38;;
78860;SDS011;68211;45.774;15.892;2023-06-14T14:17:12;9.07;;;3.23;;
78860;SDS011;68211;45.774;15.892;2023-06-14T14:19:39;4.50;;;3.17;;
78860;SDS011;68211;45.774;15.892;2023-06-14T14:22:06;5.43;;;3.55;;
78860;SDS011;68211;45.774;15.892;2023-06-14T14:24:34;4.40;;;3.20;;
78860;SDS011;68211;45.774;15.892;2023-06-14T14:27:04;5.97;;;3.35;;
78860;SDS011;68211;45.774;15.892;2023-06-14T14:29:33;3.90;;;3.33;;
78860;SDS011;68211;45.774;15.892;2023-06-14T14:32:03;8.15;;;3.15;;
78860;SDS011;68211;45.774;15.892;2023-06-14T14:34:35;4.65;;;3.05;;
78860;SDS011;68211;45.774;15.892;2023-06-14T14:40:30;4.10;;;3.28;;
78860;SDS011;68211;45.774;15.892;2023-06-14T14:43:10;4.45;;;3.25;;
78860;SDS011;68211;45.774;15.892;2023-06-14T14:45:56;3.70;;;3.10;;